createdAt,value
2018-02-09T00:00:49.001Z,27.80
2018-02-09T00:01:48.951Z,28.20
2018-02-09T00:02:48.889Z,27.80
2018-02-09T00:03:48.859Z,27.50
2018-02-09T00:04:48.799Z,27.50
2018-02-09T00:05:48.758Z,27.40
2018-02-09T00:06:48.718Z,27.40
2018-02-09T00:07:48.672Z,27.20
2018-02-09T00:08:48.650Z,28.10
2018-02-09T00:09:48.615Z,28.30
2018-02-09T00:10:48.536Z,27.60
2018-02-09T00:11:48.520Z,28.10
2018-02-09T00:12:48.453Z,27.50
2018-02-09T00:13:48.458Z,27.50
2018-02-09T00:14:48.353Z,28.20
2018-02-09T00:15:48.301Z,28.60
2018-02-09T00:16:48.263Z,26.90
2018-02-09T00:17:48.213Z,27.10
2018-02-09T00:18:48.175Z,28.10
2018-02-09T00:19:48.127Z,27.70
2018-02-09T00:20:48.074Z,27.50
2018-02-09T00:21:48.062Z,27.40
2018-02-09T00:22:48.005Z,27.20
2018-02-09T00:23:47.938Z,28.30
2018-02-09T00:24:47.913Z,28.70
2018-02-09T00:25:47.887Z,28.40
2018-02-09T00:26:47.845Z,27.80
2018-02-09T00:27:47.761Z,28.20
2018-02-09T00:28:47.750Z,29.10
2018-02-09T00:29:47.707Z,27.70
2018-02-09T00:30:47.688Z,26.20
2018-02-09T00:31:47.595Z,27.90
2018-02-09T00:32:47.537Z,27.10
2018-02-09T00:33:47.521Z,26.90
2018-02-09T00:34:47.474Z,27.50
2018-02-09T00:35:47.398Z,27.50
2018-02-09T00:36:47.364Z,28.00
2018-02-09T00:37:47.308Z,26.40
2018-02-09T00:38:47.391Z,28.00
2018-02-09T00:39:47.221Z,27.20
2018-02-09T00:40:47.186Z,27.70
2018-02-09T00:41:47.129Z,28.50
2018-02-09T00:42:47.082Z,27.60
2018-02-09T00:43:47.040Z,27.20
2018-02-09T00:44:47.033Z,27.10
2018-02-09T00:45:46.957Z,28.50
2018-02-09T00:46:46.903Z,27.90
2018-02-09T00:47:46.859Z,27.60
2018-02-09T00:48:46.829Z,28.00
2018-02-09T00:49:46.773Z,28.40
2018-02-09T00:50:46.727Z,28.30
2018-02-09T00:51:46.687Z,27.50
2018-02-09T00:52:46.635Z,29.00
2018-02-09T00:53:46.588Z,28.10
2018-02-09T00:54:46.541Z,28.30
2018-02-09T00:55:46.514Z,28.10
2018-02-09T00:56:46.459Z,28.30
2018-02-09T00:57:46.408Z,28.10
2018-02-09T00:58:46.366Z,27.70
2018-02-09T00:59:46.325Z,28.00
2018-02-09T01:00:46.278Z,28.00
2018-02-09T01:01:46.224Z,28.70
2018-02-09T01:02:46.179Z,27.60
2018-02-09T01:03:46.133Z,28.10
2018-02-09T01:04:46.091Z,28.00
2018-02-09T01:05:46.042Z,27.30
2018-02-09T01:06:46.000Z,27.60
2018-02-09T01:07:45.953Z,27.50
2018-02-09T01:08:45.910Z,28.00
2018-02-09T01:09:45.865Z,28.00
2018-02-09T01:10:45.820Z,28.10
2018-02-09T01:11:45.778Z,27.20
2018-02-09T01:12:45.735Z,28.40
2018-02-09T01:13:45.694Z,28.30
2018-02-09T01:14:45.656Z,28.60
2018-02-09T01:15:45.592Z,28.30
2018-02-09T01:16:45.543Z,29.00
2018-02-09T01:17:45.520Z,27.00
2018-02-09T01:18:45.473Z,28.50
2018-02-09T01:19:45.429Z,29.10
2018-02-09T01:20:45.364Z,28.50
2018-02-09T01:21:45.331Z,27.70
2018-02-09T01:22:45.290Z,28.20
2018-02-09T01:23:45.226Z,27.90
2018-02-09T01:24:45.196Z,27.80
2018-02-09T01:25:45.135Z,29.10
2018-02-09T01:26:45.103Z,29.10
2018-02-09T01:27:45.074Z,28.90
2018-02-09T01:28:45.022Z,28.50
2018-02-09T01:29:44.954Z,28.50
2018-02-09T01:30:44.924Z,29.20
2018-02-09T01:31:44.876Z,28.90
2018-02-09T01:32:44.839Z,28.60
2018-02-09T01:33:44.828Z,29.20
2018-02-09T01:34:44.728Z,28.50
2018-02-09T01:35:44.684Z,28.10
2018-02-09T01:36:44.634Z,28.30
2018-02-09T01:37:44.600Z,29.10
2018-02-09T01:38:44.545Z,28.40
2018-02-09T01:39:44.520Z,29.60
2018-02-09T01:40:44.491Z,29.90
2018-02-09T01:41:45.038Z,29.20
2018-02-09T01:42:45.157Z,29.70
2018-02-09T01:43:44.331Z,30.70
2018-02-09T01:44:44.273Z,29.10
2018-02-09T01:45:44.226Z,30.00
2018-02-09T01:46:44.184Z,29.70
2018-02-09T01:47:44.138Z,30.70
2018-02-09T01:48:44.096Z,30.10
2018-02-09T01:49:44.049Z,30.00
2018-02-09T01:50:44.001Z,30.20
2018-02-09T01:51:43.957Z,30.70
2018-02-09T01:52:43.915Z,30.20
2018-02-09T01:53:43.878Z,30.70
2018-02-09T01:54:43.825Z,30.30
2018-02-09T01:55:43.774Z,30.50
2018-02-09T01:56:43.730Z,30.70
2018-02-09T01:57:43.682Z,31.20
2018-02-09T01:58:43.642Z,30.90
2018-02-09T01:59:43.594Z,30.20
2018-02-09T02:00:43.551Z,30.60
2018-02-09T02:01:43.560Z,30.80
2018-02-09T02:02:43.464Z,30.60
2018-02-09T02:03:43.413Z,30.10
2018-02-09T02:04:43.373Z,31.10
2018-02-09T02:05:43.321Z,31.70
2018-02-09T02:06:43.274Z,31.40
2018-02-09T02:07:43.228Z,30.40
2018-02-09T02:08:43.186Z,31.20
2018-02-09T02:09:43.147Z,30.90
2018-02-09T02:10:43.096Z,31.60
2018-02-09T02:11:43.059Z,31.40
2018-02-09T02:12:43.024Z,31.50
2018-02-09T02:13:42.962Z,31.70
2018-02-09T02:14:42.980Z,31.40
2018-02-09T02:15:42.869Z,32.00
2018-02-09T02:16:42.829Z,32.50
2018-02-09T02:17:42.778Z,32.00
2018-02-09T02:18:42.739Z,33.00
2018-02-09T02:19:42.696Z,32.30
2018-02-09T02:20:42.656Z,33.10
2018-02-09T02:21:42.600Z,33.30
2018-02-09T02:22:42.573Z,32.10
2018-02-09T02:23:42.529Z,32.20
2018-02-09T02:24:42.471Z,33.20
2018-02-09T02:25:42.413Z,32.10
2018-02-09T02:26:42.409Z,31.90
2018-02-09T02:27:42.327Z,33.10
2018-02-09T02:28:42.278Z,33.30
2018-02-09T02:29:42.256Z,32.70
2018-02-09T02:30:42.185Z,32.60
2018-02-09T02:31:42.141Z,32.50
2018-02-09T02:32:42.093Z,32.40
2018-02-09T02:33:42.052Z,34.30
2018-02-09T02:34:42.005Z,31.80
2018-02-09T02:35:41.958Z,32.50
2018-02-09T02:36:41.913Z,33.00
2018-02-09T02:37:41.867Z,32.90
2018-02-09T02:38:41.821Z,32.30
2018-02-09T02:39:41.774Z,32.20
2018-02-09T02:40:41.766Z,32.30
2018-02-09T02:41:41.690Z,31.80
2018-02-09T02:42:41.639Z,32.80
2018-02-09T02:43:41.598Z,33.30
2018-02-09T02:44:41.564Z,33.80
2018-02-09T02:45:41.502Z,33.20
2018-02-09T02:46:41.463Z,33.00
2018-02-09T02:47:41.411Z,34.50
2018-02-09T02:48:41.374Z,32.40
2018-02-09T02:49:41.321Z,32.60
2018-02-09T02:50:41.283Z,33.70
2018-02-09T02:51:41.232Z,33.40
2018-02-09T02:52:41.181Z,33.70
2018-02-09T02:53:41.141Z,33.70
2018-02-09T02:54:41.091Z,34.20
2018-02-09T02:55:41.049Z,33.70
2018-02-09T02:56:40.998Z,34.80
2018-02-09T02:57:40.954Z,33.90
2018-02-09T02:58:40.912Z,34.40
2018-02-09T02:59:40.877Z,34.10
2018-02-09T03:00:40.815Z,32.90
2018-02-09T03:01:40.770Z,33.90
2018-02-09T03:02:40.724Z,33.80
2018-02-09T03:03:40.680Z,33.90
2018-02-09T03:04:40.633Z,33.50
2018-02-09T03:05:40.587Z,34.40
2018-02-09T03:06:40.542Z,36.00
2018-02-09T03:07:40.496Z,34.60
2018-02-09T03:08:40.457Z,34.80
2018-02-09T03:09:40.404Z,35.10
2018-02-09T03:10:40.356Z,36.10
2018-02-09T03:11:40.317Z,34.10
2018-02-09T03:12:40.272Z,34.30
2018-02-09T03:13:40.232Z,35.40
2018-02-09T03:14:40.187Z,34.40
2018-02-09T03:15:40.130Z,36.10
2018-02-09T03:16:40.083Z,33.50
2018-02-09T03:17:40.043Z,35.10
2018-02-09T03:18:39.991Z,36.20
2018-02-09T03:19:39.950Z,35.20
2018-02-09T03:20:39.904Z,35.40
2018-02-09T03:21:39.859Z,34.40
2018-02-09T03:22:39.807Z,35.40
2018-02-09T03:23:39.772Z,34.60
2018-02-09T03:24:39.721Z,35.10
2018-02-09T03:25:39.674Z,35.80
2018-02-09T03:26:39.627Z,36.50
2018-02-09T03:27:39.580Z,35.90
2018-02-09T03:28:39.536Z,35.50
2018-02-09T03:29:39.492Z,35.20
2018-02-09T03:30:39.445Z,35.60
2018-02-09T03:31:39.401Z,36.10
2018-02-09T03:32:39.352Z,36.70
2018-02-09T03:33:39.310Z,36.10
2018-02-09T03:34:39.265Z,35.40
2018-02-09T03:35:39.220Z,36.80
2018-02-09T03:36:39.173Z,36.60
2018-02-09T03:37:39.128Z,36.80
2018-02-09T03:38:39.082Z,36.40
2018-02-09T03:39:39.032Z,36.80
2018-02-09T03:40:38.986Z,35.30
2018-02-09T03:41:38.948Z,35.60
2018-02-09T03:42:38.896Z,36.50
2018-02-09T03:43:38.849Z,36.90
2018-02-09T03:44:38.810Z,36.60
2018-02-09T03:45:38.757Z,37.10
2018-02-09T03:46:38.721Z,38.10
2018-02-09T03:47:38.668Z,36.30
2018-02-09T03:48:38.627Z,37.80
2018-02-09T03:49:38.577Z,36.30
2018-02-09T03:50:38.529Z,36.40
2018-02-09T03:51:38.482Z,36.00
2018-02-09T03:52:38.440Z,36.60
2018-02-09T03:53:38.391Z,36.20
2018-02-09T03:54:38.349Z,37.90
2018-02-09T03:55:38.298Z,36.70
2018-02-09T03:56:38.256Z,36.80
2018-02-09T03:57:38.217Z,37.30
2018-02-09T03:58:38.167Z,37.90
2018-02-09T03:59:38.118Z,37.30
2018-02-09T04:00:38.074Z,37.50
2018-02-09T04:01:38.023Z,37.40
2018-02-09T04:02:37.990Z,37.30
2018-02-09T04:03:37.934Z,37.90
2018-02-09T04:04:37.888Z,38.10
2018-02-09T04:05:37.844Z,37.20
2018-02-09T04:06:37.808Z,37.20
2018-02-09T04:07:37.751Z,36.80
2018-02-09T04:08:37.706Z,37.90
2018-02-09T04:09:37.657Z,37.70
2018-02-09T04:10:37.613Z,36.40
2018-02-09T04:11:37.565Z,37.20
2018-02-09T04:12:37.521Z,37.50
2018-02-09T04:13:37.482Z,38.30
2018-02-09T04:14:37.431Z,37.50
2018-02-09T04:15:37.384Z,38.30
2018-02-09T04:16:37.349Z,37.70
2018-02-09T04:17:37.300Z,39.30
2018-02-09T04:18:37.247Z,38.90
2018-02-09T04:19:37.202Z,37.00
2018-02-09T04:20:37.162Z,37.50
2018-02-09T04:21:37.108Z,39.80
2018-02-09T04:22:37.064Z,39.10
2018-02-09T04:23:37.018Z,37.30
2018-02-09T04:24:36.975Z,38.40
2018-02-09T04:25:36.936Z,38.30
2018-02-09T04:26:36.882Z,38.20
2018-02-09T04:27:36.842Z,38.80
2018-02-09T04:28:36.790Z,37.80
2018-02-09T04:29:36.742Z,37.70
2018-02-09T04:30:36.703Z,38.40
2018-02-09T04:31:36.652Z,37.80
2018-02-09T04:32:36.604Z,38.40
2018-02-09T04:33:36.557Z,39.20
2018-02-09T04:34:36.544Z,39.10
2018-02-09T04:35:36.465Z,38.00
2018-02-09T04:36:36.419Z,38.20
2018-02-09T04:37:36.377Z,39.40
2018-02-09T04:38:36.327Z,37.90
2018-02-09T04:39:36.282Z,38.10
2018-02-09T04:40:36.235Z,39.10
2018-02-09T04:41:36.193Z,39.20
2018-02-09T04:42:36.148Z,39.10
2018-02-09T04:43:36.100Z,39.90
2018-02-09T04:44:36.058Z,39.50
2018-02-09T04:45:36.008Z,40.70
2018-02-09T04:46:35.963Z,39.50
2018-02-09T04:47:35.917Z,39.60
2018-02-09T04:48:35.877Z,38.60
2018-02-09T04:49:35.834Z,41.40
2018-02-09T04:50:35.776Z,39.60
2018-02-09T04:51:35.740Z,38.30
2018-02-09T04:52:35.698Z,40.10
2018-02-09T04:53:35.649Z,39.80
2018-02-09T04:54:35.602Z,39.90
2018-02-09T04:55:35.552Z,41.10
2018-02-09T04:56:35.514Z,40.40
2018-02-09T04:57:35.467Z,40.20
2018-02-09T04:58:35.409Z,40.60
2018-02-09T04:59:35.365Z,40.20
2018-02-09T05:00:35.321Z,41.20
2018-02-09T05:01:35.275Z,41.40
2018-02-09T05:02:35.235Z,41.60
2018-02-09T05:03:35.182Z,42.90
2018-02-09T05:04:35.141Z,41.00
2018-02-09T05:05:35.093Z,41.30
2018-02-09T05:06:35.045Z,40.60
2018-02-09T05:07:35.004Z,42.10
2018-02-09T05:08:34.958Z,41.60
2018-02-09T05:09:34.915Z,40.70
2018-02-09T05:10:34.864Z,42.80
2018-02-09T05:11:34.813Z,42.10
2018-02-09T05:12:34.766Z,42.10
2018-02-09T05:13:34.722Z,41.50
2018-02-09T05:14:34.677Z,42.70
2018-02-09T05:15:34.637Z,42.00
2018-02-09T05:16:34.588Z,42.00
2018-02-09T05:17:34.539Z,42.00
2018-02-09T05:18:34.493Z,42.10
2018-02-09T05:19:34.454Z,42.00
2018-02-09T05:20:34.403Z,42.00
2018-02-09T05:21:34.363Z,42.20
2018-02-09T05:22:34.311Z,43.40
2018-02-09T05:23:34.266Z,42.90
2018-02-09T05:24:34.217Z,43.60
2018-02-09T05:25:34.173Z,43.40
2018-02-09T05:26:34.127Z,43.80
2018-02-09T05:27:34.082Z,42.50
2018-02-09T05:28:34.035Z,42.90
2018-02-09T05:29:33.993Z,43.20
2018-02-09T05:30:33.944Z,43.70
2018-02-09T05:31:33.934Z,43.60
2018-02-09T05:32:33.853Z,43.40
2018-02-09T05:33:33.808Z,44.50
2018-02-09T05:34:33.758Z,44.40
2018-02-09T05:35:33.711Z,43.90
2018-02-09T05:36:33.665Z,43.30
2018-02-09T05:37:33.625Z,43.90
2018-02-09T05:38:33.576Z,44.60
2018-02-09T05:39:33.537Z,45.40
2018-02-09T05:40:33.486Z,44.70
2018-02-09T05:41:33.440Z,44.70
2018-02-09T05:42:33.406Z,45.30
2018-02-09T05:43:33.354Z,45.80
2018-02-09T05:44:33.304Z,46.60
2018-02-09T05:45:33.254Z,44.90
2018-02-09T05:46:33.208Z,45.60
2018-02-09T05:47:33.161Z,45.80
2018-02-09T05:48:33.112Z,48.00
2018-02-09T05:49:33.071Z,44.90
2018-02-09T05:50:33.036Z,47.50
2018-02-09T05:51:32.982Z,48.00
2018-02-09T05:52:32.930Z,47.00
2018-02-09T05:53:32.890Z,47.40
2018-02-09T05:54:32.840Z,47.60
2018-02-09T05:55:32.791Z,46.70
2018-02-09T05:56:32.749Z,48.60
2018-02-09T05:57:32.700Z,48.00
2018-02-09T05:58:32.653Z,48.90
2018-02-09T05:59:32.615Z,50.10
2018-02-09T06:00:32.562Z,50.40
2018-02-09T06:01:32.519Z,49.80
2018-02-09T06:02:32.475Z,51.60
2018-02-09T06:03:32.426Z,50.00
2018-02-09T06:04:32.378Z,51.00
2018-02-09T06:05:32.350Z,51.30
2018-02-09T06:06:32.286Z,52.10
2018-02-09T06:07:32.244Z,52.70
2018-02-09T06:08:32.197Z,52.50
2018-02-09T06:09:32.150Z,51.10
2018-02-09T06:10:32.102Z,54.20
2018-02-09T06:11:32.062Z,52.60
2018-02-09T06:12:32.014Z,52.00
2018-02-09T06:13:31.967Z,52.50
2018-02-09T06:14:31.917Z,52.00
2018-02-09T06:15:31.877Z,52.10
2018-02-09T06:16:31.829Z,51.80
2018-02-09T06:17:31.781Z,51.20
2018-02-09T06:18:31.740Z,51.60
2018-02-09T06:19:31.694Z,52.50
2018-02-09T06:20:31.653Z,52.00
2018-02-09T06:21:31.611Z,52.70
2018-02-09T06:22:31.556Z,51.00
2018-02-09T06:23:31.505Z,51.90
2018-02-09T06:24:31.460Z,50.90
2018-02-09T06:25:31.423Z,50.20
2018-02-09T06:26:31.374Z,52.00
2018-02-09T06:27:31.322Z,52.00
2018-02-09T06:28:31.278Z,50.70
2018-02-09T06:29:31.233Z,52.00
2018-02-09T06:30:31.184Z,50.40
2018-02-09T06:31:31.143Z,50.20
2018-02-09T06:32:31.098Z,49.60
2018-02-09T06:33:31.060Z,48.90
2018-02-09T06:34:31.008Z,51.40
2018-02-09T06:35:30.956Z,49.60
2018-02-09T06:36:30.911Z,50.10
2018-02-09T06:37:30.867Z,49.80
2018-02-09T06:38:30.830Z,49.00
2018-02-09T06:39:30.773Z,50.10
2018-02-09T06:40:30.732Z,49.50
2018-02-09T06:41:30.684Z,50.40
2018-02-09T06:42:30.642Z,48.10
2018-02-09T06:43:30.591Z,50.50
2018-02-09T06:44:30.550Z,48.10
2018-02-09T06:45:30.502Z,49.30
2018-02-09T06:46:30.464Z,49.80
2018-02-09T06:47:30.412Z,50.50
2018-02-09T06:48:30.364Z,50.40
2018-02-09T06:49:30.319Z,48.20
2018-02-09T06:50:30.272Z,51.50
2018-02-09T06:51:30.228Z,50.40
2018-02-09T06:52:30.186Z,50.00
2018-02-09T06:53:30.137Z,50.00
2018-02-09T06:54:30.091Z,50.90
2018-02-09T06:55:30.047Z,51.60
2018-02-09T06:56:30.004Z,49.50
2018-02-09T06:57:29.955Z,51.30
2018-02-09T06:58:29.909Z,50.80
2018-02-09T06:59:29.866Z,50.50
2018-02-09T07:00:29.818Z,48.90
2018-02-09T07:01:29.770Z,50.20
2018-02-09T07:02:29.731Z,49.30
2018-02-09T07:03:29.683Z,50.30
2018-02-09T07:04:29.643Z,48.20
2018-02-09T07:05:29.601Z,49.50
2018-02-09T07:06:29.551Z,49.90
2018-02-09T07:07:29.504Z,51.40
2018-02-09T07:08:29.457Z,48.30
2018-02-09T07:09:29.432Z,48.50
2018-02-09T07:10:29.370Z,48.90
2018-02-09T07:11:29.328Z,47.90
2018-02-09T07:12:29.277Z,46.20
2018-02-09T07:13:29.234Z,46.60
2018-02-09T07:14:29.183Z,48.20
2018-02-09T07:15:29.141Z,47.50
2018-02-09T07:16:29.096Z,48.00
2018-02-09T07:17:29.059Z,45.60
2018-02-09T07:18:29.002Z,45.60
2018-02-09T07:19:28.963Z,46.00
2018-02-09T07:20:28.914Z,45.40
2018-02-09T07:21:28.872Z,44.40
2018-02-09T07:22:28.823Z,44.10
2018-02-09T07:23:28.778Z,43.60
2018-02-09T07:24:28.733Z,43.90
2018-02-09T07:25:28.692Z,44.00
2018-02-09T07:26:28.647Z,43.30
2018-02-09T07:27:28.599Z,44.00
2018-02-09T07:28:28.573Z,45.10
2018-02-09T07:29:28.514Z,43.90
2018-02-09T07:30:28.470Z,44.10
2018-02-09T07:31:28.421Z,44.20
2018-02-09T07:32:28.376Z,44.30
2018-02-09T07:33:28.331Z,45.80
2018-02-09T07:34:28.294Z,44.30
2018-02-09T07:35:28.256Z,45.10
2018-02-09T07:36:28.197Z,44.40
2018-02-09T07:37:28.150Z,46.00
2018-02-09T07:38:28.123Z,43.60
2018-02-09T07:39:28.060Z,42.70
2018-02-09T07:40:28.022Z,43.50
2018-02-09T07:41:27.981Z,41.90
2018-02-09T07:42:27.932Z,42.60
2018-02-09T07:43:27.887Z,42.20
2018-02-09T07:44:27.859Z,43.00
2018-02-09T07:45:27.800Z,43.10
2018-02-09T07:46:27.758Z,43.00
2018-02-09T07:47:27.705Z,42.80
2018-02-09T07:48:27.661Z,44.00
2018-02-09T07:49:27.634Z,42.10
2018-02-09T07:50:27.578Z,43.40
2018-02-09T07:51:27.531Z,41.60
2018-02-09T07:52:27.484Z,41.80
2018-02-09T07:53:27.440Z,41.30
2018-02-09T07:54:27.392Z,42.70
2018-02-09T07:55:27.349Z,40.90
2018-02-09T07:56:27.313Z,41.10
2018-02-09T07:57:27.259Z,42.00
2018-02-09T07:58:27.216Z,41.80
2018-02-09T07:59:27.170Z,41.50
2018-02-09T08:00:27.127Z,43.90
2018-02-09T08:01:27.086Z,44.10
2018-02-09T08:02:27.037Z,43.70
2018-02-09T08:03:26.996Z,43.60
2018-02-09T08:04:26.955Z,42.70
2018-02-09T08:05:26.914Z,42.80
2018-02-09T08:06:26.868Z,40.70
2018-02-09T08:07:26.815Z,40.50
2018-02-09T08:08:26.773Z,40.40
2018-02-09T08:09:26.729Z,41.10
2018-02-09T08:10:26.691Z,38.40
2018-02-09T08:11:26.638Z,41.30
2018-02-09T08:12:26.637Z,40.20
2018-02-09T08:13:26.552Z,42.00
2018-02-09T08:14:26.505Z,40.40
2018-02-09T08:15:26.462Z,43.00
2018-02-09T08:16:26.417Z,42.10
2018-02-09T08:17:26.381Z,40.10
2018-02-09T08:18:26.330Z,40.50
2018-02-09T08:19:26.285Z,38.70
2018-02-09T08:20:26.242Z,39.90
2018-02-09T08:21:26.224Z,38.90
2018-02-09T08:22:26.208Z,38.60
2018-02-09T08:23:26.111Z,39.80
2018-02-09T08:24:26.067Z,40.90
2018-02-09T08:25:26.022Z,38.10
2018-02-09T08:26:26.003Z,38.10
2018-02-09T08:27:25.938Z,38.90
2018-02-09T08:28:25.900Z,38.00
2018-02-09T08:29:25.843Z,38.30
2018-02-09T08:30:25.809Z,37.80
2018-02-09T08:31:25.760Z,38.20
2018-02-09T08:32:25.721Z,38.20
2018-02-09T08:33:25.675Z,37.00
2018-02-09T08:34:25.632Z,38.10
2018-02-09T08:35:25.582Z,36.60
2018-02-09T08:36:25.584Z,36.40
2018-02-09T08:37:25.498Z,35.70
2018-02-09T08:38:25.455Z,36.70
2018-02-09T08:39:25.413Z,36.70
2018-02-09T08:40:25.366Z,34.80
2018-02-09T08:41:25.330Z,38.20
2018-02-09T08:42:25.280Z,38.80
2018-02-09T08:43:25.233Z,37.90
2018-02-09T08:44:25.192Z,37.20
2018-02-09T08:45:25.152Z,35.90
2018-02-09T08:46:25.135Z,36.00
2018-02-09T08:47:25.066Z,38.20
2018-02-09T08:48:25.023Z,38.40
2018-02-09T08:49:24.972Z,38.40
2018-02-09T08:50:24.943Z,39.80
2018-02-09T08:51:24.899Z,38.40
2018-02-09T08:52:24.847Z,39.10
2018-02-09T08:53:24.822Z,39.70
2018-02-09T08:54:24.783Z,40.50
2018-02-09T08:55:24.722Z,39.10
2018-02-09T08:56:24.677Z,37.90
2018-02-09T08:57:24.639Z,37.00
2018-02-09T08:58:24.586Z,38.70
2018-02-09T08:59:24.580Z,37.70
2018-02-09T09:00:24.497Z,38.70
2018-02-09T09:01:24.462Z,38.00
2018-02-09T09:02:24.408Z,40.60
2018-02-09T09:03:24.390Z,39.00
2018-02-09T09:04:24.318Z,40.50
2018-02-09T09:05:24.279Z,37.90
2018-02-09T09:06:24.236Z,38.20
2018-02-09T09:07:24.189Z,39.60
2018-02-09T09:08:24.173Z,38.30
2018-02-09T09:09:24.113Z,39.40
2018-02-09T09:10:24.085Z,38.30
2018-02-09T09:11:24.014Z,39.00
2018-02-09T09:12:23.973Z,39.00
2018-02-09T09:13:23.936Z,37.90
2018-02-09T09:14:23.886Z,37.80
2018-02-09T09:15:23.841Z,38.50
2018-02-09T09:16:23.804Z,37.40
2018-02-09T09:17:23.762Z,39.40
2018-02-09T09:18:23.712Z,38.00
2018-02-09T09:19:23.667Z,40.30
2018-02-09T09:20:23.624Z,40.40
2018-02-09T09:21:23.590Z,38.60
2018-02-09T09:22:23.538Z,39.90
2018-02-09T09:23:23.494Z,40.70
2018-02-09T09:24:23.459Z,40.70
2018-02-09T09:25:23.414Z,41.30
2018-02-09T09:26:23.366Z,39.60
2018-02-09T09:27:23.330Z,40.20
2018-02-09T09:28:23.286Z,41.00
2018-02-09T09:29:23.232Z,42.20
2018-02-09T09:30:23.193Z,43.30
2018-02-09T09:31:23.151Z,43.10
2018-02-09T09:32:23.106Z,43.90
2018-02-09T09:33:23.077Z,45.00
2018-02-09T09:34:23.020Z,44.00
2018-02-09T09:35:22.972Z,44.70
2018-02-09T09:36:22.934Z,43.30
2018-02-09T09:37:22.892Z,45.30
2018-02-09T09:38:22.841Z,43.60
2018-02-09T09:39:22.823Z,44.80
2018-02-09T09:40:22.767Z,46.10
2018-02-09T09:41:22.720Z,57.00
2018-02-09T09:42:22.670Z,45.60
2018-02-09T09:43:22.628Z,45.00
2018-02-09T09:44:22.586Z,44.90
2018-02-09T09:45:22.551Z,42.20
2018-02-09T09:46:22.507Z,43.70
2018-02-09T09:47:22.474Z,43.80
2018-02-09T09:48:22.449Z,43.60
2018-02-09T09:49:22.374Z,44.00
2018-02-09T09:50:22.336Z,44.50
2018-02-09T09:51:22.291Z,44.50
2018-02-09T09:52:22.292Z,44.20
2018-02-09T09:53:22.195Z,44.60
2018-02-09T09:54:22.153Z,46.00
2018-02-09T09:55:22.109Z,46.20
2018-02-09T09:56:22.088Z,45.40
2018-02-09T09:57:22.024Z,45.00
2018-02-09T09:58:21.979Z,44.40
2018-02-09T09:59:21.933Z,44.70
2018-02-09T10:00:21.890Z,44.50
2018-02-09T10:01:21.900Z,45.10
2018-02-09T10:02:21.803Z,46.90
2018-02-09T10:03:21.776Z,47.70
2018-02-09T10:04:21.711Z,42.30
2018-02-09T10:05:21.680Z,44.00
2018-02-09T10:06:21.669Z,45.10
2018-02-09T10:07:21.619Z,43.90
2018-02-09T10:08:21.551Z,43.00
2018-02-09T10:09:21.514Z,43.40
2018-02-09T10:10:21.468Z,43.50
2018-02-09T10:11:21.410Z,44.50
2018-02-09T10:12:21.369Z,42.40
2018-02-09T10:13:21.332Z,42.80
2018-02-09T10:14:21.284Z,41.80
2018-02-09T10:15:21.257Z,44.60
2018-02-09T10:16:21.195Z,43.30
2018-02-09T10:17:21.156Z,43.40
2018-02-09T10:18:21.108Z,40.90
2018-02-09T10:19:21.074Z,42.70
2018-02-09T10:20:21.029Z,42.50
2018-02-09T10:21:21.030Z,39.50
2018-02-09T10:22:20.934Z,40.20
2018-02-09T10:23:20.892Z,39.90
2018-02-09T10:24:20.886Z,41.60
2018-02-09T10:25:20.808Z,39.80
2018-02-09T10:26:20.773Z,41.60
2018-02-09T10:27:20.722Z,40.30
2018-02-09T10:28:20.700Z,40.20
2018-02-09T10:29:20.699Z,38.50
2018-02-09T10:30:20.597Z,39.10
2018-02-09T10:31:20.547Z,39.90
2018-02-09T10:32:20.519Z,39.00
2018-02-09T10:33:20.465Z,39.20
2018-02-09T10:34:20.418Z,41.00
2018-02-09T10:35:20.392Z,40.00
2018-02-09T10:36:20.337Z,37.60
2018-02-09T10:37:20.292Z,39.60
2018-02-09T10:38:20.248Z,40.40
2018-02-09T10:39:20.211Z,39.60
2018-02-09T10:40:20.165Z,41.10
2018-02-09T10:41:20.136Z,40.90
2018-02-09T10:42:20.098Z,40.30
2018-02-09T10:43:20.050Z,39.50
2018-02-09T10:44:20.001Z,39.00
2018-02-09T10:45:19.953Z,40.50
2018-02-09T10:46:19.918Z,40.20
2018-02-09T10:47:19.873Z,37.40
2018-02-09T10:48:19.853Z,37.40
2018-02-09T10:49:19.874Z,39.70
2018-02-09T10:50:19.732Z,39.10
2018-02-09T10:51:19.709Z,41.10
2018-02-09T10:52:19.650Z,41.10
2018-02-09T10:53:19.604Z,41.80
2018-02-09T10:54:19.593Z,42.80
2018-02-09T10:55:19.536Z,42.30
2018-02-09T10:56:19.480Z,45.60
2018-02-09T10:57:19.439Z,43.80
2018-02-09T10:58:19.395Z,43.40
2018-02-09T10:59:19.360Z,41.80
2018-02-09T11:00:19.303Z,41.40
2018-02-09T11:01:19.261Z,43.10
2018-02-09T11:02:19.220Z,43.10
2018-02-09T11:03:19.185Z,43.90
2018-02-09T11:04:19.144Z,44.00
2018-02-09T11:05:19.099Z,42.20
2018-02-09T11:06:19.061Z,45.10
2018-02-09T11:07:19.047Z,44.00
2018-02-09T11:08:19.008Z,45.00
2018-02-09T11:09:18.919Z,44.70
2018-02-09T11:10:18.883Z,45.60
2018-02-09T11:11:18.845Z,43.90
2018-02-09T11:12:18.842Z,42.90
2018-02-09T11:13:18.764Z,40.70
2018-02-09T11:14:18.801Z,39.40
2018-02-09T11:15:18.707Z,35.50
2018-02-09T11:16:18.621Z,35.10
2018-02-09T11:17:18.644Z,36.70
2018-02-09T11:18:18.550Z,37.70
2018-02-09T11:19:18.503Z,38.10
2018-02-09T11:20:18.534Z,39.00
2018-02-09T11:21:18.406Z,39.10
2018-02-09T11:22:18.365Z,37.90
2018-02-09T11:23:18.338Z,40.00
2018-02-09T11:24:18.289Z,39.80
2018-02-09T11:25:18.282Z,38.80
2018-02-09T11:26:18.213Z,39.30
2018-02-09T11:27:18.227Z,38.20
2018-02-09T11:28:18.127Z,39.00
2018-02-09T11:29:18.125Z,38.20
2018-02-09T11:30:18.054Z,38.50
2018-02-09T11:31:18.025Z,34.50
2018-02-09T11:32:17.950Z,37.30
2018-02-09T11:33:17.942Z,35.10
2018-02-09T11:34:17.881Z,36.90
2018-02-09T11:35:17.820Z,36.00
2018-02-09T11:36:17.784Z,35.10
2018-02-09T11:37:17.731Z,33.50
2018-02-09T11:38:17.705Z,35.50
2018-02-09T11:39:17.686Z,35.60
2018-02-09T11:40:17.618Z,34.30
2018-02-09T11:41:17.625Z,35.70
2018-02-09T11:42:17.542Z,33.70
2018-02-09T11:43:17.484Z,34.20
2018-02-09T11:44:17.453Z,35.10
2018-02-09T11:45:17.404Z,33.90
2018-02-09T11:46:17.369Z,34.10
2018-02-09T11:47:17.324Z,33.70
2018-02-09T11:48:18.140Z,34.00
2018-02-09T11:49:17.241Z,34.50
2018-02-09T11:50:17.196Z,34.20
2018-02-09T11:51:17.152Z,32.70
2018-02-09T11:52:17.111Z,33.10
2018-02-09T11:53:17.077Z,33.90
2018-02-09T11:54:17.041Z,33.80
2018-02-09T11:55:17.018Z,33.20
2018-02-09T11:56:16.938Z,31.60
2018-02-09T11:57:16.913Z,32.70
2018-02-09T11:58:16.855Z,32.90
2018-02-09T11:59:16.811Z,33.20
2018-02-09T12:00:16.768Z,33.10
2018-02-09T12:01:16.729Z,33.10
2018-02-09T12:02:16.685Z,31.90
2018-02-09T12:03:16.642Z,32.20
2018-02-09T12:04:16.609Z,31.50
2018-02-09T12:05:16.561Z,33.10
2018-02-09T12:06:16.517Z,33.80
2018-02-09T12:07:16.480Z,32.70
2018-02-09T12:08:16.436Z,35.10
2018-02-09T12:09:16.407Z,31.10
2018-02-09T12:10:16.380Z,32.70
2018-02-09T12:11:16.335Z,35.00
2018-02-09T12:12:16.287Z,35.10
2018-02-09T12:13:16.268Z,35.20
2018-02-09T12:14:16.343Z,32.30
2018-02-09T12:15:16.152Z,32.60
2018-02-09T12:16:16.111Z,32.80
2018-02-09T12:17:16.076Z,32.60
2018-02-09T12:18:16.040Z,32.60
2018-02-09T12:19:15.990Z,33.40
2018-02-09T12:20:15.938Z,33.30
2018-02-09T12:21:15.911Z,35.20
2018-02-09T12:22:15.897Z,32.50
2018-02-09T12:23:16.140Z,32.90
2018-02-09T12:24:15.775Z,35.20
2018-02-09T12:25:15.742Z,36.00
2018-02-09T12:26:15.691Z,35.00
2018-02-09T12:27:15.653Z,35.90
2018-02-09T12:28:15.618Z,34.70
2018-02-09T12:29:15.600Z,34.80
2018-02-09T12:30:15.524Z,35.00
2018-02-09T12:31:15.481Z,34.40
2018-02-09T12:32:15.440Z,32.50
2018-02-09T12:33:15.424Z,35.70
2018-02-09T12:34:15.393Z,35.30
2018-02-09T12:35:15.319Z,35.30
2018-02-09T12:36:15.277Z,35.20
2018-02-09T12:37:15.239Z,36.70
2018-02-09T12:38:15.203Z,38.50
2018-02-09T12:39:15.159Z,36.70
2018-02-09T12:40:15.122Z,36.40
2018-02-09T12:41:15.069Z,37.20
2018-02-09T12:42:15.024Z,38.10
2018-02-09T12:43:15.004Z,37.10
2018-02-09T12:44:14.951Z,35.90
2018-02-09T12:45:14.908Z,36.40
2018-02-09T12:46:14.872Z,37.30
2018-02-09T12:47:14.827Z,38.90
2018-02-09T12:48:14.779Z,39.50
2018-02-09T12:49:14.733Z,40.40
2018-02-09T12:50:14.690Z,39.70
2018-02-09T12:51:14.657Z,38.60
2018-02-09T12:52:14.604Z,37.90